Time;durP1;ratioP1;P1;durP2;ratioP2;P2;SDS_P1;SDS_P2;PMS_P1;PMS_P2;Temp;Humidity;BMP_temperature;BMP_pressure;BME280_temperature;BME280_humidity;BME280_pressure;Samples;Min_cycle;Max_cycle;Signal;HPM_P1;HPM_P2
2023/02/21 02:15:02;;;;;;;5.03;3.53;;;;;;;;;;6243216;23;20012;-88
2023/02/21 02:17:39;;;;;;;10.00;4.78;;;;;;;;;;6243107;23;20016;-88
2023/02/21 02:20:39;;;;;;;8.10;6.50;;;;;;;;;;6242160;23;20020;-88
2023/02/21 02:23:36;;;;;;;5.30;3.75;;;;;;;;;;6241889;23;20020;-88
2023/02/21 02:26:27;;;;;;;5.38;4.78;;;;;;;;;;6240883;23;20027;-88
2023/02/21 02:29:11;;;;;;;6.65;4.95;;;;;;;;;;6266630;22;20046;-88
2023/02/21 02:31:47;;;;;;;5.63;4.82;;;;;;;;;;6216132;23;20016;-88
2023/02/21 02:34:30;;;;;;;7.03;4.88;;;;;;;;;;6241149;23;20016;-88
2023/02/21 02:37:08;;;;;;;6.88;5.82;;;;;;;;;;6252136;23;20451;-88
2023/02/21 02:39:40;;;;;;;11.57;6.38;;;;;;;;;;6240582;23;20031;-88
2023/02/21 02:42:12;;;;;;;7.22;5.50;;;;;;;;;;6266200;22;20012;-88
2023/02/21 02:44:41;;;;;;;6.57;4.95;;;;;;;;;;6216548;23;20023;-87
2023/02/21 02:47:15;;;;;;;7.78;4.47;;;;;;;;;;6216921;23;20043;-88
2023/02/21 02:49:46;;;;;;;6.68;4.80;;;;;;;;;;6278135;22;20023;-87
2023/02/21 02:52:16;;;;;;;4.80;3.83;;;;;;;;;;6251705;23;20035;-87
2023/02/21 02:54:49;;;;;;;5.32;4.07;;;;;;;;;;6212048;22;20637;-90
2023/02/21 02:57:36;;;;;;;;;;;;;;;;;;;;;
2023/02/21 03:00:05;;;;;;;6.47;5.53;;;;;;;;;;6203920;23;20016;-90
2023/02/21 03:02:51;;;;;;;6.10;4.75;;;;;;;;;;6186464;23;20024;-90
2023/02/21 03:05:36;;;;;;;7.40;5.22;;;;;;;;;;6210822;23;20016;-90
2023/02/21 03:08:06;;;;;;;6.00;4.82;;;;;;;;;;6221262;23;20021;-90
2023/02/21 03:10:42;;;;;;;5.82;4.35;;;;;;;;;;6246735;23;20016;-89
2023/02/21 03:13:30;;;;;;;;;;;;;;;;;;;;;
2023/02/21 03:16:15;;;;;;;6.15;4.00;;;;;;;;;;6235288;23;20017;-90
2023/02/21 03:19:08;;;;;;;7.70;3.70;;;;;;;;;;6186782;23;20036;-90
2023/02/21 03:22:01;;;;;;;6.03;4.53;;;;;;;;;;6190537;23;20021;-89
2023/02/21 03:24:30;;;;;;;8.32;3.38;;;;;;;;;;6214355;23;20036;-90
2023/02/21 03:27:07;;;;;;;6.45;4.45;;;;;;;;;;6211262;23;20021;-90
2023/02/21 03:30:11;;;;;;;6.97;5.07;;;;;;;;;;6222731;23;20017;-90
2023/02/21 03:32:41;;;;;;;10.05;5.10;;;;;;;;;;6211493;23;20023;-90
2023/02/21 03:35:16;;;;;;;5.20;3.72;;;;;;;;;;6187696;23;20028;-89
2023/02/21 03:37:51;;;;;;;5.65;4.10;;;;;;;;;;6238018;23;20012;-90
2023/02/21 03:40:22;;;;;;;8.68;4.95;;;;;;;;;;6248886;23;20019;-89
2023/02/21 03:42:53;;;;;;;8.95;5.68;;;;;;;;;;6213765;23;20023;-90
2023/02/21 03:45:25;;;;;;;5.40;3.97;;;;;;;;;;6250564;23;20028;-90
2023/02/21 03:48:12;;;;;;;6.57;4.85;;;;;;;;;;6212789;23;20028;-90
2023/02/21 03:50:41;;;;;;;7.82;5.40;;;;;;;;;;6248301;23;20031;-89
2023/02/21 03:53:19;;;;;;;4.75;3.88;;;;;;;;;;6191745;23;20039;-90
2023/02/21 03:55:49;;;;;;;5.78;4.72;;;;;;;;;;6228665;23;20016;-90
2023/02/21 03:58:31;;;;;;;8.77;4.90;;;;;;;;;;6252939;23;20012;-90
2023/02/21 04:01:03;;;;;;;7.05;4.10;;;;;;;;;;6252632;23;20012;-90
2023/02/21 04:04:10;;;;;;;;;;;;;;;;;;;;;
2023/02/21 04:07:16;;;;;;;;;;;;;;;;;;;;;
2023/02/21 04:10:28;;;;;;;6.93;4.55;;;;;;;;;;6218567;23;20016;-90
2023/02/21 04:13:31;;;;;;;7.72;5.13;;;;;;;;;;6231571;23;20491;-90
2023/02/21 04:16:10;;;;;;;6.30;4.68;;;;;;;;;;6252768;23;20412;-90
2023/02/21 04:19:09;;;;;;;8.10;4.82;;;;;;;;;;6253923;23;20020;-90
2023/02/21 04:21:57;;;;;;;19.98;6.07;;;;;;;;;;6253900;23;20348;-90
2023/02/21 04:24:55;;;;;;;6.65;4.47;;;;;;;;;;6243685;23;20039;-90
2023/02/21 04:27:35;;;;;;;8.80;4.60;;;;;;;;;;6228595;23;20015;-90
2023/02/21 04:30:20;;;;;;;10.48;5.20;;;;;;;;;;6228797;23;20012;-90
2023/02/21 04:33:14;;;;;;;5.53;4.35;;;;;;;;;;6197647;23;20352;-90
2023/02/21 04:36:04;;;;;;;;;;;;;;;;;;;;;
2023/02/21 04:39:21;;;;;;;;;;;;;;;;;;;;;
2023/02/21 04:42:03;;;;;;;6.10;4.25;;;;;;;;;;6226965;23;20016;-91
2023/02/21 04:45:26;;;;;;;14.23;5.63;;;;;;;;;;6222402;23;20463;-91
2023/02/21 04:48:07;;;;;;;7.13;4.30;;;;;;;;;;6218037;23;20020;-91
2023/02/21 04:50:49;;;;;;;6.43;3.60;;;;;;;;;;6217553;23;20035;-91
2023/02/21 04:53:38;;;;;;;11.48;5.65;;;;;;;;;;6250714;23;20016;-91
2023/02/21 04:56:12;;;;;;;8.32;5.43;;;;;;;;;;6254654;23;20372;-91
2023/02/21 05:02:00;;;;;;;10.55;5.85;;;;;;;;;;6186507;23;20020;-91
2023/02/21 05:04:52;;;;;;;8.63;5.10;;;;;;;;;;6214626;23;20016;-91
2023/02/21 05:07:31;;;;;;;5.20;4.45;;;;;;;;;;6223181;23;20020;-91
2023/02/21 05:10:08;;;;;;;5.45;4.90;;;;;;;;;;6214240;23;20017;-91
2023/02/21 05:12:59;;;;;;;9.27;5.88;;;;;;;;;;6221670;23;20020;-91
2023/02/21 05:15:28;;;;;;;8.05;4.78;;;;;;;;;;6223248;23;20028;-91
2023/02/21 05:18:06;;;;;;;7.97;5.32;;;;;;;;;;6223903;23;20012;-92
2023/02/21 05:20:52;;;;;;;6.25;4.25;;;;;;;;;;6222925;23;20364;-91
2023/02/21 05:24:11;;;;;;;;;;;;;;;;;;;;;
2023/02/21 05:30:46;;;;;;;;;;;;;;;;;;;;;
2023/02/21 05:34:06;;;;;;;9.32;6.05;;;;;;;;;;6207634;23;20021;-92
2023/02/21 05:37:08;;;;;;;9.65;5.60;;;;;;;;;;6185533;23;20029;-90
2023/02/21 05:39:39;;;;;;;7.60;5.68;;;;;;;;;;6186434;23;20024;-90
2023/02/21 05:42:18;;;;;;;8.35;5.07;;;;;;;;;;6222897;23;20015;-90
2023/02/21 05:45:05;;;;;;;;;;;;;;;;;;;;;
2023/02/21 05:47:40;;;;;;;6.75;5.78;;;;;;;;;;6205067;23;20027;-90
2023/02/21 05:50:15;;;;;;;8.52;6.40;;;;;;;;;;6181143;23;20032;-90
2023/02/21 05:52:53;;;;;;;7.93;6.18;;;;;;;;;;6204952;23;20017;-90
2023/02/21 05:55:28;;;;;;;8.90;6.43;;;;;;;;;;6215619;23;20013;-90
2023/02/21 05:57:58;;;;;;;9.10;4.75;;;;;;;;;;6215958;23;20293;-89
2023/02/21 06:00:26;;;;;;;4.93;4.28;;;;;;;;;;6205511;23;20472;-89
2023/02/21 06:03:05;;;;;;;4.80;4.03;;;;;;;;;;6231495;23;20021;-89
2023/02/21 06:05:49;;;;;;;5.88;5.00;;;;;;;;;;6208639;23;20019;-90
2023/02/21 06:08:26;;;;;;;5.28;4.47;;;;;;;;;;6238879;23;20025;-89
2023/02/21 06:10:57;;;;;;;7.13;5.20;;;;;;;;;;6220392;23;20023;-90
2023/02/21 06:13:24;;;;;;;5.40;4.28;;;;;;;;;;6181266;23;20020;-89
2023/02/21 06:16:03;;;;;;;6.28;3.97;;;;;;;;;;6231005;23;20023;-89
2023/02/21 06:18:31;;;;;;;7.78;4.93;;;;;;;;;;6245043;23;20004;-89
2023/02/21 06:21:00;;;;;;;8.18;5.88;;;;;;;;;;6235886;23;20086;-89
2023/02/21 06:23:29;;;;;;;11.63;6.05;;;;;;;;;;6239126;23;20023;-89
2023/02/21 06:25:58;;;;;;;5.35;4.35;;;;;;;;;;6207579;23;20035;-90
2023/02/21 06:28:34;;;;;;;6.55;4.68;;;;;;;;;;6207160;23;20021;-91
2023/02/21 06:31:10;;;;;;;7.63;4.30;;;;;;;;;;6209024;23;20015;-91
2023/02/21 06:33:39;;;;;;;5.72;4.00;;;;;;;;;;6210032;23;20034;-92
2023/02/21 06:36:09;;;;;;;6.70;4.20;;;;;;;;;;6224262;23;20020;-92
2023/02/21 06:39:14;;;;;;;;;;;;;;;;;;;;;
2023/02/21 06:41:58;;;;;;;10.35;5.25;;;;;;;;;;6156083;23;20020;-92
2023/02/21 06:44:34;;;;;;;7.63;5.13;;;;;;;;;;6178821;23;20024;-92
2023/02/21 08:55:44;;;;;;;10.35;7.75;;;;;;;;;;6210266;23;20016;-88
2023/02/21 08:58:15;;;;;;;9.32;8.15;;;;;;;;;;6191768;23;20024;-89
2023/02/21 09:00:43;;;;;;;7.22;6.35;;;;;;;;;;6219770;23;20329;-90
2023/02/21 09:03:15;;;;;;;9.52;7.03;;;;;;;;;;6214236;23;20013;-88
2023/02/21 09:05:42;;;;;;;11.73;7.30;;;;;;;;;;6185623;23;20024;-89
2023/02/21 09:08:14;;;;;;;10.77;7.55;;;;;;;;;;6189177;23;20020;-88
2023/02/21 09:10:46;;;;;;;11.55;7.03;;;;;;;;;;6168244;23;20102;-89
2023/02/21 09:13:15;;;;;;;8.93;7.32;;;;;;;;;;6202477;23;20016;-88
2023/02/21 09:15:44;;;;;;;9.48;7.63;;;;;;;;;;6199472;23;20031;-88
2023/02/21 09:18:12;;;;;;;9.32;7.03;;;;;;;;;;6194912;23;20020;-90
2023/02/21 09:20:41;;;;;;;10.05;6.88;;;;;;;;;;6164907;23;20017;-89
2023/02/21 09:23:09;;;;;;;10.52;6.43;;;;;;;;;;6161895;23;20017;-87
2023/02/21 09:25:39;;;;;;;12.32;7.30;;;;;;;;;;6187468;23;20016;-87
2023/02/21 09:28:09;;;;;;;8.32;7.32;;;;;;;;;;6188327;23;20028;-88
2023/02/21 09:30:38;;;;;;;12.45;7.40;;;;;;;;;;6187942;23;20459;-88
2023/02/21 09:33:08;;;;;;;9.35;6.85;;;;;;;;;;6163125;23;20017;-87
2023/02/21 09:35:36;;;;;;;13.55;8.63;;;;;;;;;;6188098;23;20025;-89
2023/02/21 09:38:06;;;;;;;10.52;8.77;;;;;;;;;;6188487;23;20020;-91
2023/02/21 09:40:37;;;;;;;16.23;8.65;;;;;;;;;;6189385;23;20026;-89
2023/02/21 09:43:13;;;;;;;10.55;7.60;;;;;;;;;;6189900;23;20451;-89
2023/02/21 09:45:46;;;;;;;11.02;7.90;;;;;;;;;;6190454;23;20024;-90
2023/02/21 09:48:18;;;;;;;11.60;8.82;;;;;;;;;;6190335;23;20027;-89
2023/02/21 09:50:50;;;;;;;11.23;8.63;;;;;;;;;;6194923;23;20464;-89
2023/02/21 09:53:23;;;;;;;23.58;9.95;;;;;;;;;;6194428;23;20016;-90
2023/02/21 09:55:54;;;;;;;12.15;7.95;;;;;;;;;;6188918;23;20479;-89
2023/02/21 09:58:21;;;;;;;12.60;8.65;;;;;;;;;;6159749;23;20031;-89
2023/02/21 10:00:50;;;;;;;12.77;7.95;;;;;;;;;;6160707;23;20360;-88
2023/02/21 10:03:30;;;;;;;15.85;10.07;;;;;;;;;;6135966;23;20487;-90
2023/02/21 10:06:05;;;;;;;11.68;8.60;;;;;;;;;;6196261;23;20020;-89
2023/02/21 10:08:41;;;;;;;12.13;8.73;;;;;;;;;;6159523;23;20016;-90
2023/02/21 10:11:26;;;;;;;14.30;9.40;;;;;;;;;;6158999;23;20025;-90
2023/02/21 10:13:58;;;;;;;11.32;8.18;;;;;;;;;;6161397;23;20368;-92
2023/02/21 10:16:33;;;;;;;12.27;9.55;;;;;;;;;;6162698;23;20028;-88
2023/02/21 10:19:07;;;;;;;13.55;10.40;;;;;;;;;;6162609;23;20024;-89
2023/02/21 10:21:42;;;;;;;16.95;11.10;;;;;;;;;;6162136;23;20025;-90
2023/02/21 10:24:15;;;;;;;14.40;11.05;;;;;;;;;;6191910;23;20027;-91
2023/02/21 10:26:47;;;;;;;13.15;10.48;;;;;;;;;;6197964;23;20017;-90
2023/02/21 10:29:21;;;;;;;15.10;9.07;;;;;;;;;;6195017;23;20017;-91
2023/02/21 10:31:55;;;;;;;16.10;9.25;;;;;;;;;;6200804;23;20017;-91
2023/02/21 10:34:25;;;;;;;19.75;11.00;;;;;;;;;;6163171;23;20024;-92
2023/02/21 10:36:54;;;;;;;11.80;9.18;;;;;;;;;;6167786;23;20021;-90
2023/02/21 10:39:25;;;;;;;12.02;9.43;;;;;;;;;;6180007;23;20212;-92
2023/02/21 10:41:53;;;;;;;14.27;10.15;;;;;;;;;;6185341;23;20084;-90
2023/02/21 10:44:23;;;;;;;13.48;9.73;;;;;;;;;;6185508;23;20065;-90
2023/02/21 10:46:56;;;;;;;14.45;9.68;;;;;;;;;;6190486;23;20381;-91
2023/02/21 10:49:29;;;;;;;12.68;9.90;;;;;;;;;;6156594;23;20013;-89
2023/02/21 10:52:05;;;;;;;11.65;8.50;;;;;;;;;;6150640;23;20024;-90
2023/02/21 10:54:35;;;;;;;15.00;11.55;;;;;;;;;;6156531;23;20270;-91
2023/02/21 10:57:08;;;;;;;10.05;9.05;;;;;;;;;;6182344;23;20472;-89
2023/02/21 10:59:38;;;;;;;13.85;9.95;;;;;;;;;;6191965;23;20021;-91
2023/02/21 11:02:28;;;;;;;14.27;9.27;;;;;;;;;;6189360;23;20071;-91
2023/02/21 11:04:58;;;;;;;15.70;8.50;;;;;;;;;;6165683;23;20511;-90
2023/02/21 11:07:28;;;;;;;15.73;10.45;;;;;;;;;;6189477;23;20017;-91
2023/02/21 11:10:00;;;;;;;12.85;10.07;;;;;;;;;;6190510;23;20032;-92
2023/02/21 11:12:30;;;;;;;14.68;9.75;;;;;;;;;;6188598;23;20025;-91
2023/02/21 11:15:19;;;;;;;12.40;9.32;;;;;;;;;;6165755;23;20021;-92
2023/02/21 11:18:03;;;;;;;14.25;9.07;;;;;;;;;;6190236;23;20027;-91
2023/02/21 11:20:31;;;;;;;13.32;8.98;;;;;;;;;;6189419;23;20031;-90
2023/02/21 11:23:00;;;;;;;14.63;10.65;;;;;;;;;;6190080;23;20035;-92
2023/02/21 11:25:29;;;;;;;13.82;9.82;;;;;;;;;;6165750;23;20024;-90
2023/02/21 11:28:05;;;;;;;13.50;11.07;;;;;;;;;;6188786;23;20027;-93
2023/02/21 11:30:38;;;;;;;14.88;10.32;;;;;;;;;;6190013;23;20073;-93
2023/02/21 11:33:09;;;;;;;11.68;8.68;;;;;;;;;;6167302;23;20025;-93
2023/02/21 11:35:42;;;;;;;12.38;9.13;;;;;;;;;;6191173;23;20016;-93
2023/02/21 11:38:30;;;;;;;14.13;9.25;;;;;;;;;;6193172;23;20025;-92
2023/02/21 11:41:00;;;;;;;14.50;9.75;;;;;;;;;;6229948;23;20017;-91
2023/02/21 11:43:32;;;;;;;11.38;8.27;;;;;;;;;;6192175;23;20336;-92
2023/02/21 11:46:19;;;;;;;13.32;9.77;;;;;;;;;;6228026;23;20017;-90
2023/02/21 11:48:59;;;;;;;14.68;9.77;;;;;;;;;;6167321;23;20021;-91
2023/02/21 11:51:34;;;;;;;16.23;8.57;;;;;;;;;;6193238;23;20017;-91
2023/02/21 11:54:03;;;;;;;12.20;9.35;;;;;;;;;;6191083;23;20028;-90
2023/02/21 11:56:56;;;;;;;15.50;9.63;;;;;;;;;;6189204;23;20021;-89
2023/02/21 11:59:35;;;;;;;11.47;8.27;;;;;;;;;;6193268;23;20023;-90
2023/02/21 12:02:55;;;;;;;12.10;8.40;;;;;;;;;;6192812;23;20103;-91
2023/02/21 12:05:38;;;;;;;11.00;7.05;;;;;;;;;;6100171;23;20026;-92
2023/02/21 12:08:45;;;;;;;11.48;6.68;;;;;;;;;;6075233;23;20018;-91
2023/02/21 12:11:22;;;;;;;10.40;8.07;;;;;;;;;;6187512;23;20032;-89
2023/02/21 12:13:57;;;;;;;12.68;7.88;;;;;;;;;;6227444;23;20024;-89
2023/02/21 12:16:36;;;;;;;14.60;6.68;;;;;;;;;;6191512;23;20013;-91
2023/02/21 12:19:19;;;;;;;8.00;6.85;;;;;;;;;;6227238;23;20016;-91
2023/02/21 12:22:01;;;;;;;11.13;8.18;;;;;;;;;;6191601;23;20017;-91
2023/02/21 12:24:44;;;;;;;12.68;6.43;;;;;;;;;;6167701;23;20023;-90
2023/02/21 12:27:19;;;;;;;9.00;6.63;;;;;;;;;;6194223;23;20017;-90
2023/02/21 12:29:59;;;;;;;9.57;6.75;;;;;;;;;;6168847;23;20016;-92
2023/02/21 12:32:42;;;;;;;9.02;6.53;;;;;;;;;;6190318;23;20028;-90
2023/02/21 12:35:30;;;;;;;9.15;6.60;;;;;;;;;;6166508;23;20017;-91
2023/02/21 12:38:03;;;;;;;8.75;5.50;;;;;;;;;;6191377;23;20031;-90
2023/02/21 12:40:45;;;;;;;10.32;6.60;;;;;;;;;;6189958;23;20024;-90
2023/02/21 12:43:25;;;;;;;9.23;6.28;;;;;;;;;;6164201;23;20502;-91
2023/02/21 12:46:13;;;;;;;11.07;6.30;;;;;;;;;;6164345;23;20020;-91
2023/02/21 12:48:44;;;;;;;26.95;5.53;;;;;;;;;;6188234;23;20021;-90
2023/02/21 12:51:15;;;;;;;8.48;5.10;;;;;;;;;;6212931;23;20021;-91
2023/02/21 12:53:49;;;;;;;5.93;4.15;;;;;;;;;;6187257;23;20020;-91
2023/02/21 12:56:23;;;;;;;8.10;3.95;;;;;;;;;;6187306;23;20028;-91
2023/02/21 12:58:54;;;;;;;9.80;5.33;;;;;;;;;;6163729;23;20027;-89
2023/02/21 13:01:29;;;;;;;5.95;4.80;;;;;;;;;;6188143;23;20020;-92
2023/02/21 13:04:04;;;;;;;7.55;5.25;;;;;;;;;;6187402;23;20039;-91
2023/02/21 13:06:35;;;;;;;6.82;4.07;;;;;;;;;;6186300;23;20491;-89
2023/02/21 13:09:15;;;;;;;5.32;4.45;;;;;;;;;;6186855;23;20024;-90
2023/02/21 13:11:48;;;;;;;6.88;4.18;;;;;;;;;;6161354;23;20016;-89
2023/02/21 13:14:17;;;;;;;5.40;3.95;;;;;;;;;;6187674;23;20021;-90
2023/02/21 13:16:52;;;;;;;8.40;5.00;;;;;;;;;;6188000;23;20025;-90
2023/02/21 13:19:23;;;;;;;9.50;5.65;;;;;;;;;;6163855;23;20017;-90
2023/02/21 13:22:05;;;;;;;5.47;4.82;;;;;;;;;;6188287;23;20020;-89
2023/02/21 13:25:02;;;;;;;5.38;3.38;;;;;;;;;;6163091;23;20012;-89
2023/02/21 13:27:45;;;;;;;6.45;4.18;;;;;;;;;;6186631;23;20633;-91
2023/02/21 13:30:18;;;;;;;7.07;3.75;;;;;;;;;;6222682;23;20016;-89
2023/02/21 13:32:52;;;;;;;7.55;3.72;;;;;;;;;;6187005;23;20021;-90
2023/02/21 13:35:30;;;;;;;8.15;3.50;;;;;;;;;;6187924;23;20023;-90
2023/02/21 13:38:01;;;;;;;4.53;3.53;;;;;;;;;;6192671;23;20026;-90
2023/02/21 13:40:35;;;;;;;5.95;3.67;;;;;;;;;;6216896;23;20013;-92
2023/02/21 13:43:09;;;;;;;6.57;3.53;;;;;;;;;;6192186;23;20025;-92
2023/02/21 13:45:46;;;;;;;5.00;3.97;;;;;;;;;;6197776;23;20025;-90
2023/02/21 13:48:26;;;;;;;6.05;4.13;;;;;;;;;;6202337;23;20018;-90
2023/02/21 13:51:00;;;;;;;6.22;4.60;;;;;;;;;;6210244;23;20024;-92
2023/02/21 13:53:32;;;;;;;12.30;4.28;;;;;;;;;;6211611;23;20016;-91
2023/02/21 13:56:45;;;;;;;9.80;4.38;;;;;;;;;;6213432;23;20019;-91
2023/02/21 13:59:31;;;;;;;8.68;2.90;;;;;;;;;;6215009;23;20083;-90
2023/02/21 14:02:20;;;;;;;8.75;4.20;;;;;;;;;;6213253;23;20076;-89
2023/02/21 14:05:04;;;;;;;5.97;3.80;;;;;;;;;;6191651;23;20023;-91
2023/02/21 14:07:51;;;;;;;6.18;3.75;;;;;;;;;;6188576;23;20024;-91
2023/02/21 14:10:40;;;;;;;9.35;4.25;;;;;;;;;;6213392;23;20019;-91
2023/02/21 14:13:20;;;;;;;7.95;4.15;;;;;;;;;;6157098;23;20031;-89
2023/02/21 14:15:50;;;;;;;7.18;3.65;;;;;;;;;;6188068;23;20016;-88
2023/02/21 14:18:25;;;;;;;5.25;2.97;;;;;;;;;;6163833;23;20495;-91
2023/02/21 14:20:55;;;;;;;10.63;3.25;;;;;;;;;;6188669;23;20061;-89
2023/02/21 14:23:38;;;;;;;8.18;3.30;;;;;;;;;;6189039;23;20016;-88
2023/02/21 14:26:06;;;;;;;8.00;3.15;;;;;;;;;;6188738;23;20012;-88
2023/02/21 14:29:13;;;;;;;7.18;2.90;;;;;;;;;;6189201;23;20024;-90
2023/02/21 14:31:48;;;;;;;4.32;2.85;;;;;;;;;;6193341;23;20035;-89
2023/02/21 14:34:35;;;;;;;4.18;2.10;;;;;;;;;;6195200;23;20016;-89
2023/02/21 14:37:11;;;;;;;7.00;3.45;;;;;;;;;;6171298;23;20016;-91
2023/02/21 14:39:41;;;;;;;3.47;2.50;;;;;;;;;;6185237;23;20024;-89
2023/02/21 14:42:31;;;;;;;5.60;2.67;;;;;;;;;;6213918;23;20012;-91
2023/02/21 14:45:21;;;;;;;3.03;2.72;;;;;;;;;;6162447;23;20012;-89
2023/02/21 14:47:59;;;;;;;3.78;2.67;;;;;;;;;;6186616;23;20019;-89
2023/02/21 14:50:36;;;;;;;9.77;2.53;;;;;;;;;;6187414;23;20020;-91
2023/02/21 15:52:37;;;;;;;3.42;2.10;;;;;;;;;;6260244;22;20023;-88
2023/02/21 16:54:20;;;;;;;5.18;2.15;;;;;;;;;;6257949;22;20015;-88
2023/02/21 16:56:50;;;;;;;3.17;2.30;;;;;;;;;;6245805;22;20022;-89
2023/02/21 17:43:15;;;;;;;5.18;2.00;;;;;;;;;;6268769;22;20015;-89
2023/02/21 17:45:44;;;;;;;5.20;2.90;;;;;;;;;;6248183;22;20352;-89
2023/02/21 17:48:11;;;;;;;4.43;2.83;;;;;;;;;;6285310;22;20327;-88
2023/02/21 17:50:39;;;;;;;3.95;2.60;;;;;;;;;;6247185;22;20019;-88
2023/02/21 17:53:07;;;;;;;4.75;3.20;;;;;;;;;;6271848;22;20015;-88
2023/02/21 17:55:34;;;;;;;12.93;2.90;;;;;;;;;;6246662;22;20023;-88
2023/02/21 17:58:02;;;;;;;6.15;3.15;;;;;;;;;;6274316;22;20016;-88
2023/02/21 18:00:33;;;;;;;3.10;2.70;;;;;;;;;;6246992;22;20016;-88
2023/02/21 18:03:02;;;;;;;2.70;2.13;;;;;;;;;;6281615;22;20019;-88
2023/02/21 18:05:30;;;;;;;4.88;2.13;;;;;;;;;;6246864;22;20023;-89
2023/02/21 18:07:58;;;;;;;7.05;2.33;;;;;;;;;;6273706;22;20015;-88
2023/02/21 18:10:26;;;;;;;7.43;2.50;;;;;;;;;;6271179;22;20016;-88
2023/02/21 18:12:54;;;;;;;7.07;2.35;;;;;;;;;;6273257;22;20019;-89
2023/02/21 18:15:22;;;;;;;6.30;2.92;;;;;;;;;;6220437;22;20012;-89
2023/02/21 18:17:51;;;;;;;6.45;3.70;;;;;;;;;;6246184;22;20016;-88
2023/02/21 18:20:19;;;;;;;6.55;2.25;;;;;;;;;;6247174;22;20474;-88
2023/02/21 18:22:46;;;;;;;7.28;2.65;;;;;;;;;;6244466;22;20577;-89
2023/02/21 18:25:14;;;;;;;3.33;2.30;;;;;;;;;;6273603;22;20348;-88
2023/02/21 18:27:42;;;;;;;3.92;2.50;;;;;;;;;;6273367;22;20016;-89
2023/02/21 18:30:10;;;;;;;6.38;2.47;;;;;;;;;;6246914;22;20019;-89
2023/02/21 18:32:37;;;;;;;6.22;2.70;;;;;;;;;;6245812;22;20022;-88
2023/02/21 18:35:06;;;;;;;4.32;2.30;;;;;;;;;;6246687;22;20015;-89
2023/02/21 18:37:34;;;;;;;6.72;2.08;;;;;;;;;;6246550;22;20008;-87
2023/02/21 18:40:02;;;;;;;4.35;3.10;;;;;;;;;;6242437;22;20020;-85
2023/02/21 18:42:32;;;;;;;4.43;1.95;;;;;;;;;;6267741;22;20024;-86
2023/02/21 18:45:00;;;;;;;2.90;2.13;;;;;;;;;;6264565;22;20486;-87
2023/02/21 18:47:30;;;;;;;4.32;2.25;;;;;;;;;;6212166;22;20015;-87
2023/02/21 18:49:58;;;;;;;8.18;2.25;;;;;;;;;;6237405;22;20020;-86
2023/02/21 18:52:26;;;;;;;3.33;2.30;;;;;;;;;;6237276;22;20038;-88
2023/02/21 18:54:54;;;;;;;4.10;2.97;;;;;;;;;;6263203;22;20020;-87
2023/02/21 18:57:24;;;;;;;6.40;2.83;;;;;;;;;;6265709;22;20012;-88
2023/02/21 18:59:51;;;;;;;5.72;2.67;;;;;;;;;;6264068;22;20018;-87
2023/02/21 19:02:20;;;;;;;5.38;3.25;;;;;;;;;;6265311;22;20016;-87
2023/02/21 19:04:48;;;;;;;11.10;3.80;;;;;;;;;;6264628;22;20012;-87
2023/02/21 19:07:16;;;;;;;5.95;2.97;;;;;;;;;;6237426;22;20016;-87
2023/02/21 19:09:49;;;;;;;3.58;2.20;;;;;;;;;;6274004;22;20012;-87
2023/02/21 19:12:16;;;;;;;3.90;3.15;;;;;;;;;;6265160;22;20022;-87
2023/02/21 19:14:45;;;;;;;9.20;7.53;;;;;;;;;;6236614;22;20030;-87
2023/02/21 19:17:13;;;;;;;10.57;8.38;;;;;;;;;;6237700;22;20026;-87
2023/02/21 19:19:42;;;;;;;7.53;5.97;;;;;;;;;;6261945;22;20020;-88
2023/02/21 19:22:12;;;;;;;10.57;3.95;;;;;;;;;;6262114;22;20027;-87
2023/02/21 19:24:39;;;;;;;4.28;3.45;;;;;;;;;;6211255;22;20352;-87
2023/02/21 19:27:13;;;;;;;9.20;3.88;;;;;;;;;;6275268;22;20530;-88
2023/02/21 19:29:41;;;;;;;18.95;12.50;;;;;;;;;;6264750;22;20016;-88
2023/02/21 19:32:09;;;;;;;14.13;11.00;;;;;;;;;;6248853;22;20015;-88
2023/02/21 19:34:38;;;;;;;11.27;5.65;;;;;;;;;;6237185;22;20038;-89
2023/02/21 19:37:06;;;;;;;6.25;4.55;;;;;;;;;;6265420;22;20016;-86
2023/02/21 19:39:38;;;;;;;8.55;6.30;;;;;;;;;;6273979;22;20022;-87
2023/02/21 19:42:06;;;;;;;11.30;6.00;;;;;;;;;;6237112;22;20019;-87
2023/02/21 19:44:34;;;;;;;7.82;4.93;;;;;;;;;;6262719;22;20023;-87
2023/02/21 19:47:04;;;;;;;7.63;6.10;;;;;;;;;;6237986;22;20023;-87
2023/02/21 19:49:31;;;;;;;9.52;6.97;;;;;;;;;;6247751;22;20016;-86
2023/02/21 19:51:59;;;;;;;6.50;5.13;;;;;;;;;;6274222;22;20348;-87
2023/02/21 19:54:29;;;;;;;11.77;7.50;;;;;;;;;;6263741;22;20026;-87
2023/02/21 19:57:01;;;;;;;6.40;3.72;;;;;;;;;;6263974;22;20034;-87
2023/02/21 19:59:28;;;;;;;6.32;4.28;;;;;;;;;;6236924;22;20035;-86
2023/02/21 20:01:59;;;;;;;8.15;5.25;;;;;;;;;;6264634;22;20016;-87
2023/02/21 20:04:32;;;;;;;;;;;;;;;;;;6267659;22;20347;-86
2023/02/21 20:07:02;;;;;;;9.55;6.80;;;;;;;;;;6238803;22;19922;-88
2023/02/21 20:09:29;;;;;;;11.70;7.35;;;;;;;;;;6235996;22;20020;-87
2023/02/21 20:11:57;;;;;;;11.43;8.13;;;;;;;;;;6237778;22;20172;-87
2023/02/21 20:14:24;;;;;;;10.43;8.75;;;;;;;;;;6236010;22;20015;-87
2023/02/21 20:16:52;;;;;;;17.10;10.25;;;;;;;;;;6264675;22;20027;-87
2023/02/21 20:19:23;;;;;;;8.07;6.88;;;;;;;;;;6263169;22;20026;-86
2023/02/21 20:21:53;;;;;;;;;;;;;;;;;;6239962;22;20026;-86
2023/02/21 20:24:20;;;;;;;8.57;7.65;;;;;;;;;;6265296;22;19919;-87
2023/02/21 20:26:51;;;;;;;8.32;7.18;;;;;;;;;;6267143;22;20463;-86
2023/02/21 20:29:22;;;;;;;18.08;11.23;;;;;;;;;;6265652;22;20030;-87
2023/02/21 20:31:53;;;;;;;14.68;9.63;;;;;;;;;;6278219;22;20724;-87
2023/02/21 20:34:23;;;;;;;10.95;8.73;;;;;;;;;;6264865;22;20015;-87
2023/02/21 20:36:53;;;;;;;9.68;8.30;;;;;;;;;;6275912;22;20016;-87
2023/02/21 20:39:27;;;;;;;12.68;10.27;;;;;;;;;;6264929;22;20023;-87
2023/02/21 20:41:58;;;;;;;12.68;9.27;;;;;;;;;;6271095;22;20030;-87
2023/02/21 20:44:26;;;;;;;13.65;10.75;;;;;;;;;;6238167;22;20026;-87
2023/02/21 20:46:53;;;;;;;12.25;10.50;;;;;;;;;;6266119;22;20022;-87
2023/02/21 20:49:22;;;;;;;13.02;10.02;;;;;;;;;;6266330;22;20012;-87
2023/02/21 20:51:52;;;;;;;14.70;11.93;;;;;;;;;;6237736;22;20034;-87
2023/02/21 20:54:22;;;;;;;15.27;10.85;;;;;;;;;;6222613;22;20024;-86
2023/02/21 20:56:53;;;;;;;16.40;11.00;;;;;;;;;;6203337;23;20036;-86
2023/02/21 20:59:22;;;;;;;14.93;12.15;;;;;;;;;;6179224;23;20023;-85
2023/02/21 21:01:50;;;;;;;14.80;10.02;;;;;;;;;;6203118;23;20392;-86
2023/02/21 21:04:25;;;;;;;12.73;9.05;;;;;;;;;;6208529;23;20020;-87
2023/02/21 21:06:53;;;;;;;13.73;10.90;;;;;;;;;;6215054;23;20412;-86
2023/02/21 21:09:27;;;;;;;15.05;10.70;;;;;;;;;;6205022;23;20016;-86
2023/02/21 21:11:59;;;;;;;15.80;11.00;;;;;;;;;;6203821;23;20020;-87
2023/02/21 21:14:27;;;;;;;12.98;11.70;;;;;;;;;;6178989;23;20032;-86
2023/02/21 21:16:55;;;;;;;16.05;12.10;;;;;;;;;;6206690;23;20080;-86
2023/02/21 21:19:32;;;;;;;15.68;9.63;;;;;;;;;;6229624;23;20024;-87
2023/02/21 21:22:00;;;;;;;10.98;9.90;;;;;;;;;;6204568;23;20032;-87
2023/02/21 21:24:28;;;;;;;13.95;10.13;;;;;;;;;;6210257;23;20024;-87
2023/02/21 21:27:03;;;;;;;14.57;10.10;;;;;;;;;;6223756;23;20024;-86
2023/02/21 21:29:30;;;;;;;15.60;10.23;;;;;;;;;;6271050;23;20016;-86
2023/02/21 21:31:58;;;;;;;15.73;11.25;;;;;;;;;;6261562;23;20248;-86
2023/02/21 21:34:31;;;;;;;17.50;12.63;;;;;;;;;;6238210;23;20008;-86
2023/02/21 21:37:00;;;;;;;14.27;12.40;;;;;;;;;;6221916;23;20334;-87
2023/02/21 21:39:30;;;;;;;16.02;13.63;;;;;;;;;;6216229;23;20024;-87
2023/02/21 21:42:04;;;;;;;17.05;14.07;;;;;;;;;;6213365;23;20031;-87
2023/02/21 21:44:31;;;;;;;;;;;;;;;;;;6231978;23;20017;-86
2023/02/21 21:46:59;;;;;;;17.52;11.73;;;;;;;;;;6238797;23;19922;-86
2023/02/21 21:49:31;;;;;;;17.55;13.07;;;;;;;;;;6213084;23;20013;-87
2023/02/21 21:51:58;;;;;;;19.63;14.70;;;;;;;;;;6221453;23;20464;-87
2023/02/21 21:54:29;;;;;;;16.02;14.38;;;;;;;;;;6243986;23;20024;-86
2023/02/21 21:56:58;;;;;;;17.65;14.27;;;;;;;;;;6214084;23;20028;-86
2023/02/21 21:59:28;;;;;;;13.48;12.10;;;;;;;;;;6238038;23;20013;-86
2023/02/21 22:01:56;;;;;;;16.08;13.77;;;;;;;;;;6213986;23;20226;-86
2023/02/21 22:04:26;;;;;;;24.17;15.73;;;;;;;;;;6219481;23;20012;-86
2023/02/21 22:06:57;;;;;;;15.68;14.02;;;;;;;;;;6235946;23;20461;-86
2023/02/21 22:09:25;;;;;;;15.95;13.23;;;;;;;;;;6213166;23;20020;-86
2023/02/21 22:11:52;;;;;;;18.27;12.88;;;;;;;;;;6211596;23;20019;-86
2023/02/21 22:14:22;;;;;;;16.55;13.85;;;;;;;;;;6212229;23;20021;-87
2023/02/21 22:16:52;;;;;;;16.00;13.27;;;;;;;;;;6221938;23;20016;-85
2023/02/21 22:19:22;;;;;;;16.58;13.02;;;;;;;;;;6214509;23;20023;-86
2023/02/21 22:21:53;;;;;;;14.95;11.10;;;;;;;;;;6211950;23;20012;-86
2023/02/21 22:24:23;;;;;;;17.60;12.98;;;;;;;;;;6212782;23;20024;-86
2023/02/21 22:26:54;;;;;;;19.38;14.48;;;;;;;;;;6221523;23;20043;-86
2023/02/21 22:29:22;;;;;;;19.20;13.85;;;;;;;;;;6212423;23;20020;-86
2023/02/21 22:31:49;;;;;;;18.80;13.73;;;;;;;;;;6213134;23;20012;-86
2023/02/21 22:34:22;;;;;;;14.60;11.80;;;;;;;;;;6214385;23;20019;-86
2023/02/21 22:36:50;;;;;;;16.70;14.10;;;;;;;;;;6220864;23;20024;-86
2023/02/21 22:39:20;;;;;;;13.90;12.52;;;;;;;;;;6212648;23;20023;-86
2023/02/21 22:41:49;;;;;;;20.27;15.35;;;;;;;;;;6236515;23;20013;-87
2023/02/21 22:44:16;;;;;;;16.92;13.63;;;;;;;;;;6211606;23;20021;-86
2023/02/21 22:46:47;;;;;;;15.15;12.65;;;;;;;;;;6211761;23;20479;-86